Terminal Aerodrome Forecast
Issued by NWS

Home | Current Version | Previous Version | Graphics & Text | Print | Product List | Glossary On
Versions: 1 2 3 4 5 6 7 8 9 10 11 12 13 14 15 16 17 18 19 20 21 22
721
FTUS43 KMPX 231755
TAFAXN
TAF
KAXN 231755Z 2318/2418 11012G20KT 3SM -SHRA OVC008
     FM232000 11013G21KT 6SM BR VCSH OVC006
     FM232300 11014KT 6SM BR OVC008
     FM240500 13013KT 4SM BR OVC003
     FM241600 13014G21KT P6SM OVC007=

USA.gov is the U.S. government's official web portal to all federal, state and local government web resources and services.